sensor_id;sensor_type;location;lat;lon;timestamp;P1;durP1;ratioP1;P2;durP2;ratioP2
5458;SDS011;2752;49.992;8.422;2024-01-06T00:00:13;5.37;;;1.60;;
5458;SDS011;2752;49.992;8.422;2024-01-06T00:02:41;2.23;;;1.63;;
5458;SDS011;2752;49.992;8.422;2024-01-06T00:05:08;4.23;;;3.03;;
5458;SDS011;2752;49.992;8.422;2024-01-06T00:07:36;7.70;;;2.20;;
5458;SDS011;2752;49.992;8.422;2024-01-06T00:10:03;2.83;;;1.50;;
5458;SDS011;2752;49.992;8.422;2024-01-06T00:12:30;2.23;;;1.50;;
5458;SDS011;2752;49.992;8.422;2024-01-06T00:14:57;8.13;;;2.20;;
5458;SDS011;2752;49.992;8.422;2024-01-06T00:17:24;7.93;;;2.17;;
5458;SDS011;2752;49.992;8.422;2024-01-06T00:19:51;7.83;;;2.27;;
5458;SDS011;2752;49.992;8.422;2024-01-06T00:22:19;3.43;;;1.90;;
5458;SDS011;2752;49.992;8.422;2024-01-06T00:24:47;4.93;;;1.53;;
5458;SDS011;2752;49.992;8.422;2024-01-06T00:27:14;5.17;;;1.47;;
5458;SDS011;2752;49.992;8.422;2024-01-06T00:29:42;9.30;;;1.60;;
5458;SDS011;2752;49.992;8.422;2024-01-06T00:32:09;6.90;;;1.73;;
5458;SDS011;2752;49.992;8.422;2024-01-06T00:34:36;1.97;;;1.20;;
5458;SDS011;2752;49.992;8.422;2024-01-06T00:37:03;2.57;;;1.60;;
5458;SDS011;2752;49.992;8.422;2024-01-06T00:39:30;5.37;;;2.00;;
5458;SDS011;2752;49.992;8.422;2024-01-06T00:41:59;4.80;;;2.37;;
5458;SDS011;2752;49.992;8.422;2024-01-06T00:44:26;8.83;;;1.67;;
5458;SDS011;2752;49.992;8.422;2024-01-06T00:46:53;2.57;;;1.70;;
5458;SDS011;2752;49.992;8.422;2024-01-06T00:49:20;2.70;;;1.83;;
5458;SDS011;2752;49.992;8.422;2024-01-06T00:51:47;2.70;;;1.50;;
5458;SDS011;2752;49.992;8.422;2024-01-06T00:54:14;6.30;;;2.50;;
5458;SDS011;2752;49.992;8.422;2024-01-06T00:56:42;3.90;;;1.70;;
5458;SDS011;2752;49.992;8.422;2024-01-06T00:59:10;4.20;;;1.87;;
5458;SDS011;2752;49.992;8.422;2024-01-06T01:01:37;3.17;;;1.73;;
5458;SDS011;2752;49.992;8.422;2024-01-06T01:04:04;4.87;;;2.67;;
5458;SDS011;2752;49.992;8.422;2024-01-06T01:06:31;5.67;;;1.70;;
5458;SDS011;2752;49.992;8.422;2024-01-06T01:08:58;4.30;;;1.70;;
5458;SDS011;2752;49.992;8.422;2024-01-06T01:11:25;5.47;;;2.33;;
5458;SDS011;2752;49.992;8.422;2024-01-06T01:13:52;6.03;;;1.90;;
5458;SDS011;2752;49.992;8.422;2024-01-06T01:16:21;2.73;;;1.60;;
5458;SDS011;2752;49.992;8.422;2024-01-06T01:18:48;4.40;;;1.60;;
5458;SDS011;2752;49.992;8.422;2024-01-06T01:21:15;14.13;;;2.03;;
5458;SDS011;2752;49.992;8.422;2024-01-06T01:23:42;5.70;;;1.90;;
5458;SDS011;2752;49.992;8.422;2024-01-06T01:26:09;10.00;;;1.93;;
5458;SDS011;2752;49.992;8.422;2024-01-06T01:28:35;4.70;;;2.20;;
5458;SDS011;2752;49.992;8.422;2024-01-06T01:31:03;3.10;;;1.33;;
5458;SDS011;2752;49.992;8.422;2024-01-06T01:33:31;3.47;;;1.80;;
5458;SDS011;2752;49.992;8.422;2024-01-06T01:35:58;5.27;;;1.70;;
5458;SDS011;2752;49.992;8.422;2024-01-06T01:38:25;5.30;;;1.87;;
5458;SDS011;2752;49.992;8.422;2024-01-06T01:40:52;10.00;;;1.87;;
5458;SDS011;2752;49.992;8.422;2024-01-06T01:43:19;4.03;;;1.20;;
5458;SDS011;2752;49.992;8.422;2024-01-06T01:45:48;2.77;;;1.47;;
5458;SDS011;2752;49.992;8.422;2024-01-06T01:48:15;9.40;;;1.90;;
5458;SDS011;2752;49.992;8.422;2024-01-06T01:50:43;2.60;;;1.40;;
5458;SDS011;2752;49.992;8.422;2024-01-06T01:53:10;8.30;;;1.43;;
5458;SDS011;2752;49.992;8.422;2024-01-06T01:55:39;6.20;;;1.37;;
5458;SDS011;2752;49.992;8.422;2024-01-06T01:58:06;3.50;;;1.00;;
5458;SDS011;2752;49.992;8.422;2024-01-06T02:00:33;4.00;;;1.60;;
5458;SDS011;2752;49.992;8.422;2024-01-06T02:03:00;12.23;;;2.00;;
5458;SDS011;2752;49.992;8.422;2024-01-06T02:05:27;2.90;;;2.00;;
5458;SDS011;2752;49.992;8.422;2024-01-06T02:07:56;3.10;;;1.13;;
5458;SDS011;2752;49.992;8.422;2024-01-06T02:10:23;2.33;;;1.23;;
5458;SDS011;2752;49.992;8.422;2024-01-06T02:12:50;1.50;;;1.40;;
5458;SDS011;2752;49.992;8.422;2024-01-06T02:15:17;2.07;;;1.30;;
5458;SDS011;2752;49.992;8.422;2024-01-06T02:17:44;3.80;;;1.63;;
5458;SDS011;2752;49.992;8.422;2024-01-06T02:20:11;5.57;;;1.60;;
5458;SDS011;2752;49.992;8.422;2024-01-06T02:22:41;4.47;;;1.47;;
5458;SDS011;2752;49.992;8.422;2024-01-06T02:25:08;4.80;;;2.10;;
5458;SDS011;2752;49.992;8.422;2024-01-06T02:27:37;4.30;;;1.37;;
5458;SDS011;2752;49.992;8.422;2024-01-06T02:30:05;5.10;;;2.07;;
5458;SDS011;2752;49.992;8.422;2024-01-06T02:32:32;3.00;;;1.20;;
5458;SDS011;2752;49.992;8.422;2024-01-06T02:34:59;2.77;;;1.43;;
5458;SDS011;2752;49.992;8.422;2024-01-06T02:37:26;3.23;;;1.43;;
5458;SDS011;2752;49.992;8.422;2024-01-06T02:39:54;2.80;;;1.63;;
5458;SDS011;2752;49.992;8.422;2024-01-06T02:42:21;7.00;;;1.90;;
5458;SDS011;2752;49.992;8.422;2024-01-06T02:44:49;5.13;;;1.80;;
5458;SDS011;2752;49.992;8.422;2024-01-06T02:47:16;4.03;;;1.40;;
5458;SDS011;2752;49.992;8.422;2024-01-06T02:49:43;5.23;;;1.50;;
5458;SDS011;2752;49.992;8.422;2024-01-06T02:52:10;6.37;;;2.13;;
5458;SDS011;2752;49.992;8.422;2024-01-06T02:54:37;3.27;;;1.70;;
5458;SDS011;2752;49.992;8.422;2024-01-06T02:57:05;9.07;;;1.40;;
5458;SDS011;2752;49.992;8.422;2024-01-06T02:59:32;7.93;;;2.47;;
5458;SDS011;2752;49.992;8.422;2024-01-06T03:02:01;5.13;;;1.40;;
5458;SDS011;2752;49.992;8.422;2024-01-06T03:04:28;7.10;;;2.00;;
5458;SDS011;2752;49.992;8.422;2024-01-06T03:06:55;3.40;;;2.63;;
5458;SDS011;2752;49.992;8.422;2024-01-06T03:09:22;1.47;;;1.30;;
5458;SDS011;2752;49.992;8.422;2024-01-06T03:11:49;5.90;;;1.13;;
5458;SDS011;2752;49.992;8.422;2024-01-06T03:14:17;3.30;;;1.40;;
5458;SDS011;2752;49.992;8.422;2024-01-06T03:16:44;4.03;;;1.70;;
5458;SDS011;2752;49.992;8.422;2024-01-06T03:19:11;3.97;;;1.87;;
5458;SDS011;2752;49.992;8.422;2024-01-06T03:21:38;7.17;;;1.40;;
5458;SDS011;2752;49.992;8.422;2024-01-06T03:24:06;2.60;;;1.20;;
5458;SDS011;2752;49.992;8.422;2024-01-06T03:26:34;1.90;;;1.03;;
5458;SDS011;2752;49.992;8.422;2024-01-06T03:29:01;11.40;;;1.60;;
5458;SDS011;2752;49.992;8.422;2024-01-06T03:31:29;7.10;;;1.53;;
5458;SDS011;2752;49.992;8.422;2024-01-06T03:33:56;4.10;;;1.30;;
5458;SDS011;2752;49.992;8.422;2024-01-06T03:36:23;5.90;;;1.47;;
5458;SDS011;2752;49.992;8.422;2024-01-06T03:38:51;11.10;;;1.97;;
5458;SDS011;2752;49.992;8.422;2024-01-06T03:41:18;4.53;;;1.57;;
5458;SDS011;2752;49.992;8.422;2024-01-06T03:43:45;2.67;;;1.60;;
5458;SDS011;2752;49.992;8.422;2024-01-06T03:46:12;1.80;;;1.50;;
5458;SDS011;2752;49.992;8.422;2024-01-06T03:48:40;3.60;;;1.70;;
5458;SDS011;2752;49.992;8.422;2024-01-06T03:51:07;4.40;;;1.53;;
5458;SDS011;2752;49.992;8.422;2024-01-06T03:53:34;3.77;;;1.70;;
5458;SDS011;2752;49.992;8.422;2024-01-06T03:56:02;6.83;;;2.17;;
5458;SDS011;2752;49.992;8.422;2024-01-06T03:58:29;3.17;;;1.60;;
5458;SDS011;2752;49.992;8.422;2024-01-06T04:00:56;2.83;;;1.70;;
5458;SDS011;2752;49.992;8.422;2024-01-06T04:03:23;10.77;;;2.10;;
5458;SDS011;2752;49.992;8.422;2024-01-06T04:05:51;3.13;;;1.70;;
5458;SDS011;2752;49.992;8.422;2024-01-06T04:08:18;4.20;;;2.23;;
5458;SDS011;2752;49.992;8.422;2024-01-06T04:10:45;4.83;;;2.07;;
5458;SDS011;2752;49.992;8.422;2024-01-06T04:13:12;1.73;;;1.40;;
5458;SDS011;2752;49.992;8.422;2024-01-06T04:15:39;3.90;;;1.87;;
5458;SDS011;2752;49.992;8.422;2024-01-06T04:18:06;5.40;;;2.07;;
5458;SDS011;2752;49.992;8.422;2024-01-06T04:20:34;3.60;;;1.77;;
5458;SDS011;2752;49.992;8.422;2024-01-06T04:23:03;8.73;;;1.97;;
5458;SDS011;2752;49.992;8.422;2024-01-06T04:25:30;4.40;;;2.10;;
5458;SDS011;2752;49.992;8.422;2024-01-06T04:27:57;3.60;;;2.03;;
5458;SDS011;2752;49.992;8.422;2024-01-06T04:30:24;4.20;;;2.00;;
5458;SDS011;2752;49.992;8.422;2024-01-06T04:32:51;4.20;;;1.50;;
5458;SDS011;2752;49.992;8.422;2024-01-06T04:35:19;2.10;;;1.90;;
5458;SDS011;2752;49.992;8.422;2024-01-06T04:37:46;3.90;;;2.20;;
5458;SDS011;2752;49.992;8.422;2024-01-06T04:40:15;11.73;;;2.63;;
5458;SDS011;2752;49.992;8.422;2024-01-06T04:42:42;3.80;;;1.70;;
5458;SDS011;2752;49.992;8.422;2024-01-06T04:45:09;7.93;;;2.57;;
5458;SDS011;2752;49.992;8.422;2024-01-06T04:47:36;11.30;;;2.70;;
5458;SDS011;2752;49.992;8.422;2024-01-06T04:50:03;10.80;;;2.30;;
5458;SDS011;2752;49.992;8.422;2024-01-06T04:52:30;7.97;;;2.30;;
5458;SDS011;2752;49.992;8.422;2024-01-06T04:54:58;3.90;;;2.10;;
5458;SDS011;2752;49.992;8.422;2024-01-06T04:57:25;5.17;;;2.33;;
5458;SDS011;2752;49.992;8.422;2024-01-06T04:59:52;7.23;;;2.43;;
5458;SDS011;2752;49.992;8.422;2024-01-06T05:02:19;3.53;;;1.80;;
5458;SDS011;2752;49.992;8.422;2024-01-06T05:04:46;3.60;;;2.07;;
5458;SDS011;2752;49.992;8.422;2024-01-06T05:07:13;4.70;;;2.53;;
5458;SDS011;2752;49.992;8.422;2024-01-06T05:09:40;4.33;;;1.70;;
5458;SDS011;2752;49.992;8.422;2024-01-06T05:12:07;5.77;;;2.30;;
5458;SDS011;2752;49.992;8.422;2024-01-06T05:14:36;4.40;;;2.20;;
5458;SDS011;2752;49.992;8.422;2024-01-06T05:17:03;4.33;;;2.30;;
5458;SDS011;2752;49.992;8.422;2024-01-06T05:19:30;7.93;;;2.63;;
5458;SDS011;2752;49.992;8.422;2024-01-06T05:21:57;16.90;;;2.50;;
5458;SDS011;2752;49.992;8.422;2024-01-06T05:24:24;4.83;;;1.60;;
5458;SDS011;2752;49.992;8.422;2024-01-06T05:26:51;4.33;;;1.80;;
5458;SDS011;2752;49.992;8.422;2024-01-06T05:29:18;6.53;;;1.73;;
5458;SDS011;2752;49.992;8.422;2024-01-06T05:31:47;8.10;;;2.20;;
5458;SDS011;2752;49.992;8.422;2024-01-06T05:34:14;3.83;;;1.30;;
5458;SDS011;2752;49.992;8.422;2024-01-06T05:36:41;2.07;;;1.50;;
5458;SDS011;2752;49.992;8.422;2024-01-06T05:39:08;2.40;;;1.57;;
5458;SDS011;2752;49.992;8.422;2024-01-06T05:41:37;11.43;;;1.87;;
5458;SDS011;2752;49.992;8.422;2024-01-06T05:44:04;7.13;;;1.80;;
5458;SDS011;2752;49.992;8.422;2024-01-06T05:46:31;2.00;;;1.50;;
5458;SDS011;2752;49.992;8.422;2024-01-06T05:49:00;2.60;;;1.37;;
5458;SDS011;2752;49.992;8.422;2024-01-06T05:51:27;3.83;;;1.60;;
5458;SDS011;2752;49.992;8.422;2024-01-06T05:53:54;4.37;;;1.57;;
5458;SDS011;2752;49.992;8.422;2024-01-06T05:56:24;6.17;;;1.60;;
5458;SDS011;2752;49.992;8.422;2024-01-06T05:58:51;2.80;;;1.77;;
5458;SDS011;2752;49.992;8.422;2024-01-06T06:01:18;7.57;;;1.47;;
5458;SDS011;2752;49.992;8.422;2024-01-06T06:03:45;15.43;;;1.77;;
5458;SDS011;2752;49.992;8.422;2024-01-06T06:06:14;6.23;;;1.93;;
5458;SDS011;2752;49.992;8.422;2024-01-06T06:08:41;2.77;;;1.63;;
5458;SDS011;2752;49.992;8.422;2024-01-06T06:11:08;2.90;;;1.30;;
5458;SDS011;2752;49.992;8.422;2024-01-06T06:13:36;3.00;;;1.50;;
5458;SDS011;2752;49.992;8.422;2024-01-06T06:16:04;3.43;;;2.00;;
5458;SDS011;2752;49.992;8.422;2024-01-06T06:18:31;2.17;;;1.30;;
5458;SDS011;2752;49.992;8.422;2024-01-06T06:20:58;6.73;;;2.63;;
5458;SDS011;2752;49.992;8.422;2024-01-06T06:23:27;5.20;;;2.90;;
5458;SDS011;2752;49.992;8.422;2024-01-06T06:25:54;5.53;;;1.83;;
5458;SDS011;2752;49.992;8.422;2024-01-06T06:28:21;3.90;;;2.00;;
5458;SDS011;2752;49.992;8.422;2024-01-06T06:30:48;9.80;;;1.90;;
5458;SDS011;2752;49.992;8.422;2024-01-06T06:33:15;3.10;;;1.40;;
5458;SDS011;2752;49.992;8.422;2024-01-06T06:35:42;7.10;;;1.70;;
5458;SDS011;2752;49.992;8.422;2024-01-06T06:38:09;3.27;;;1.30;;
5458;SDS011;2752;49.992;8.422;2024-01-06T06:40:38;1.73;;;1.30;;
5458;SDS011;2752;49.992;8.422;2024-01-06T06:43:05;3.43;;;1.57;;
5458;SDS011;2752;49.992;8.422;2024-01-06T06:45:33;2.60;;;1.60;;
5458;SDS011;2752;49.992;8.422;2024-01-06T06:48:00;2.83;;;1.60;;
5458;SDS011;2752;49.992;8.422;2024-01-06T06:50:27;4.83;;;1.57;;
5458;SDS011;2752;49.992;8.422;2024-01-06T06:52:54;5.30;;;2.13;;
5458;SDS011;2752;49.992;8.422;2024-01-06T06:55:21;3.27;;;1.70;;
5458;SDS011;2752;49.992;8.422;2024-01-06T06:57:49;4.00;;;1.70;;
5458;SDS011;2752;49.992;8.422;2024-01-06T07:00:17;2.67;;;1.73;;
5458;SDS011;2752;49.992;8.422;2024-01-06T07:02:44;2.10;;;1.50;;
5458;SDS011;2752;49.992;8.422;2024-01-06T07:05:11;1.87;;;1.50;;
5458;SDS011;2752;49.992;8.422;2024-01-06T07:07:38;3.10;;;1.73;;
5458;SDS011;2752;49.992;8.422;2024-01-06T07:10:05;3.20;;;2.23;;
5458;SDS011;2752;49.992;8.422;2024-01-06T07:12:32;2.10;;;1.90;;
5458;SDS011;2752;49.992;8.422;2024-01-06T07:15:01;4.43;;;2.23;;
5458;SDS011;2752;49.992;8.422;2024-01-06T07:17:29;3.60;;;1.80;;
5458;SDS011;2752;49.992;8.422;2024-01-06T07:19:56;13.13;;;2.57;;
5458;SDS011;2752;49.992;8.422;2024-01-06T07:22:23;3.03;;;1.50;;
5458;SDS011;2752;49.992;8.422;2024-01-06T07:24:50;4.00;;;2.07;;
5458;SDS011;2752;49.992;8.422;2024-01-06T07:27:17;2.47;;;1.70;;
5458;SDS011;2752;49.992;8.422;2024-01-06T07:29:44;5.90;;;2.17;;
5458;SDS011;2752;49.992;8.422;2024-01-06T07:32:13;4.90;;;1.40;;
5458;SDS011;2752;49.992;8.422;2024-01-06T07:34:43;3.00;;;2.10;;
5458;SDS011;2752;49.992;8.422;2024-01-06T07:37:11;7.10;;;1.90;;
5458;SDS011;2752;49.992;8.422;2024-01-06T07:39:38;3.83;;;1.67;;
5458;SDS011;2752;49.992;8.422;2024-01-06T07:42:05;7.60;;;2.00;;
5458;SDS011;2752;49.992;8.422;2024-01-06T07:44:32;6.53;;;1.60;;
5458;SDS011;2752;49.992;8.422;2024-01-06T07:46:59;2.50;;;1.40;;
5458;SDS011;2752;49.992;8.422;2024-01-06T07:49:31;3.50;;;2.03;;
5458;SDS011;2752;49.992;8.422;2024-01-06T07:51:58;3.67;;;1.87;;
5458;SDS011;2752;49.992;8.422;2024-01-06T07:54:26;1.90;;;1.43;;
5458;SDS011;2752;49.992;8.422;2024-01-06T07:56:53;6.37;;;1.83;;
5458;SDS011;2752;49.992;8.422;2024-01-06T07:59:20;2.83;;;1.70;;
5458;SDS011;2752;49.992;8.422;2024-01-06T08:01:47;5.20;;;2.33;;
5458;SDS011;2752;49.992;8.422;2024-01-06T08:04:14;3.67;;;1.60;;
5458;SDS011;2752;49.992;8.422;2024-01-06T08:06:42;6.93;;;2.50;;
5458;SDS011;2752;49.992;8.422;2024-01-06T08:09:10;5.13;;;2.87;;
5458;SDS011;2752;49.992;8.422;2024-01-06T08:11:37;3.30;;;2.80;;
5458;SDS011;2752;49.992;8.422;2024-01-06T08:14:04;5.40;;;2.33;;
5458;SDS011;2752;49.992;8.422;2024-01-06T08:16:31;2.13;;;2.03;;
5458;SDS011;2752;49.992;8.422;2024-01-06T08:18:58;4.03;;;2.40;;
5458;SDS011;2752;49.992;8.422;2024-01-06T08:21:25;5.20;;;2.33;;
5458;SDS011;2752;49.992;8.422;2024-01-06T08:23:53;4.50;;;2.20;;
5458;SDS011;2752;49.992;8.422;2024-01-06T08:26:21;2.60;;;1.80;;
5458;SDS011;2752;49.992;8.422;2024-01-06T08:28:48;7.20;;;2.43;;
5458;SDS011;2752;49.992;8.422;2024-01-06T08:31:15;6.77;;;3.00;;
5458;SDS011;2752;49.992;8.422;2024-01-06T08:33:42;15.33;;;2.40;;
5458;SDS011;2752;49.992;8.422;2024-01-06T08:36:10;8.00;;;2.50;;
5458;SDS011;2752;49.992;8.422;2024-01-06T08:38:37;4.00;;;1.90;;
5458;SDS011;2752;49.992;8.422;2024-01-06T08:41:05;6.80;;;2.23;;
5458;SDS011;2752;49.992;8.422;2024-01-06T08:43:32;6.40;;;2.33;;
5458;SDS011;2752;49.992;8.422;2024-01-06T08:46:00;4.63;;;2.40;;
5458;SDS011;2752;49.992;8.422;2024-01-06T08:48:27;2.10;;;1.60;;
5458;SDS011;2752;49.992;8.422;2024-01-06T08:50:54;5.13;;;2.30;;
5458;SDS011;2752;49.992;8.422;2024-01-06T08:53:21;6.13;;;2.87;;
5458;SDS011;2752;49.992;8.422;2024-01-06T08:55:48;5.33;;;2.70;;
5458;SDS011;2752;49.992;8.422;2024-01-06T08:58:17;7.33;;;2.80;;
5458;SDS011;2752;49.992;8.422;2024-01-06T09:00:44;5.90;;;2.40;;
5458;SDS011;2752;49.992;8.422;2024-01-06T09:03:11;2.43;;;2.00;;
5458;SDS011;2752;49.992;8.422;2024-01-06T09:05:38;6.80;;;2.77;;
5458;SDS011;2752;49.992;8.422;2024-01-06T09:08:06;12.50;;;2.70;;
5458;SDS011;2752;49.992;8.422;2024-01-06T09:10:33;4.67;;;2.63;;
5458;SDS011;2752;49.992;8.422;2024-01-06T09:13:01;4.47;;;2.20;;
5458;SDS011;2752;49.992;8.422;2024-01-06T09:15:29;8.23;;;4.23;;
5458;SDS011;2752;49.992;8.422;2024-01-06T09:17:57;4.40;;;2.57;;
5458;SDS011;2752;49.992;8.422;2024-01-06T09:20:24;5.10;;;2.83;;
5458;SDS011;2752;49.992;8.422;2024-01-06T09:22:52;8.30;;;2.63;;
5458;SDS011;2752;49.992;8.422;2024-01-06T09:25:19;4.87;;;2.93;;
5458;SDS011;2752;49.992;8.422;2024-01-06T09:27:48;5.07;;;2.77;;
5458;SDS011;2752;49.992;8.422;2024-01-06T09:30:16;5.60;;;2.27;;
5458;SDS011;2752;49.992;8.422;2024-01-06T09:32:44;3.40;;;2.17;;
5458;SDS011;2752;49.992;8.422;2024-01-06T09:35:11;6.93;;;3.10;;
5458;SDS011;2752;49.992;8.422;2024-01-06T09:37:39;8.30;;;2.33;;
5458;SDS011;2752;49.992;8.422;2024-01-06T09:40:07;3.87;;;2.30;;
5458;SDS011;2752;49.992;8.422;2024-01-06T09:42:35;6.80;;;3.83;;
5458;SDS011;2752;49.992;8.422;2024-01-06T09:45:03;4.87;;;3.17;;
5458;SDS011;2752;49.992;8.422;2024-01-06T09:47:30;3.43;;;2.23;;
5458;SDS011;2752;49.992;8.422;2024-01-06T09:50:03;4.33;;;2.40;;
5458;SDS011;2752;49.992;8.422;2024-01-06T09:52:34;7.30;;;2.50;;
5458;SDS011;2752;49.992;8.422;2024-01-06T09:55:04;7.03;;;2.60;;
5458;SDS011;2752;49.992;8.422;2024-01-06T09:57:34;3.83;;;2.40;;
5458;SDS011;2752;49.992;8.422;2024-01-06T10:00:02;6.03;;;3.40;;
5458;SDS011;2752;49.992;8.422;2024-01-06T10:02:29;9.17;;;3.03;;
5458;SDS011;2752;49.992;8.422;2024-01-06T10:04:56;8.30;;;2.40;;
5458;SDS011;2752;49.992;8.422;2024-01-06T10:07:25;4.57;;;2.70;;
5458;SDS011;2752;49.992;8.422;2024-01-06T10:09:54;3.40;;;2.10;;
5458;SDS011;2752;49.992;8.422;2024-01-06T10:12:22;5.30;;;3.10;;
5458;SDS011;2752;49.992;8.422;2024-01-06T10:14:50;7.63;;;2.77;;
5458;SDS011;2752;49.992;8.422;2024-01-06T10:17:17;7.33;;;3.03;;
5458;SDS011;2752;49.992;8.422;2024-01-06T10:19:44;13.33;;;3.03;;
5458;SDS011;2752;49.992;8.422;2024-01-06T10:22:12;8.50;;;4.07;;
5458;SDS011;2752;49.992;8.422;2024-01-06T10:24:41;6.23;;;2.87;;
5458;SDS011;2752;49.992;8.422;2024-01-06T10:27:08;11.70;;;3.57;;
5458;SDS011;2752;49.992;8.422;2024-01-06T10:29:35;8.30;;;3.43;;
5458;SDS011;2752;49.992;8.422;2024-01-06T10:32:02;5.20;;;3.13;;
5458;SDS011;2752;49.992;8.422;2024-01-06T10:34:29;9.83;;;3.53;;
5458;SDS011;2752;49.992;8.422;2024-01-06T10:36:57;8.30;;;3.13;;
5458;SDS011;2752;49.992;8.422;2024-01-06T10:39:24;5.20;;;3.43;;
5458;SDS011;2752;49.992;8.422;2024-01-06T10:41:55;6.53;;;3.10;;
5458;SDS011;2752;49.992;8.422;2024-01-06T10:44:23;3.80;;;2.83;;
5458;SDS011;2752;49.992;8.422;2024-01-06T10:46:51;6.03;;;3.20;;
5458;SDS011;2752;49.992;8.422;2024-01-06T10:49:18;6.90;;;3.37;;
5458;SDS011;2752;49.992;8.422;2024-01-06T10:51:47;4.97;;;2.90;;
5458;SDS011;2752;49.992;8.422;2024-01-06T10:54:15;6.17;;;3.10;;
5458;SDS011;2752;49.992;8.422;2024-01-06T10:56:44;7.43;;;3.30;;
5458;SDS011;2752;49.992;8.422;2024-01-06T10:59:13;5.00;;;3.20;;
5458;SDS011;2752;49.992;8.422;2024-01-06T11:01:41;8.73;;;3.67;;
5458;SDS011;2752;49.992;8.422;2024-01-06T11:04:08;42.63;;;13.57;;
5458;SDS011;2752;49.992;8.422;2024-01-06T11:06:35;7.23;;;3.97;;
5458;SDS011;2752;49.992;8.422;2024-01-06T11:09:04;13.73;;;5.47;;
5458;SDS011;2752;49.992;8.422;2024-01-06T11:11:33;15.50;;;4.80;;
5458;SDS011;2752;49.992;8.422;2024-01-06T11:16:45;7.00;;;3.27;;
5458;SDS011;2752;49.992;8.422;2024-01-06T11:22:02;7.40;;;3.70;;
5458;SDS011;2752;49.992;8.422;2024-01-06T11:24:46;5.70;;;3.20;;
5458;SDS011;2752;49.992;8.422;2024-01-06T11:27:17;7.70;;;4.10;;
5458;SDS011;2752;49.992;8.422;2024-01-06T11:29:44;7.40;;;3.30;;
5458;SDS011;2752;49.992;8.422;2024-01-06T11:32:19;5.00;;;3.60;;
5458;SDS011;2752;49.992;8.422;2024-01-06T11:34:49;7.33;;;2.97;;
5458;SDS011;2752;49.992;8.422;2024-01-06T11:37:23;8.27;;;3.67;;
5458;SDS011;2752;49.992;8.422;2024-01-06T11:39:50;6.07;;;3.17;;
5458;SDS011;2752;49.992;8.422;2024-01-06T11:42:18;6.33;;;3.30;;
5458;SDS011;2752;49.992;8.422;2024-01-06T11:44:49;5.93;;;3.13;;
5458;SDS011;2752;49.992;8.422;2024-01-06T11:47:17;4.57;;;3.03;;
5458;SDS011;2752;49.992;8.422;2024-01-06T11:49:50;3.60;;;2.80;;
5458;SDS011;2752;49.992;8.422;2024-01-06T11:52:19;4.77;;;2.93;;
5458;SDS011;2752;49.992;8.422;2024-01-06T11:54:46;6.57;;;2.77;;
5458;SDS011;2752;49.992;8.422;2024-01-06T11:57:13;7.27;;;2.87;;
5458;SDS011;2752;49.992;8.422;2024-01-06T11:59:40;3.37;;;2.27;;
5458;SDS011;2752;49.992;8.422;2024-01-06T12:02:10;7.53;;;3.00;;
5458;SDS011;2752;49.992;8.422;2024-01-06T12:04:37;7.53;;;3.10;;
5458;SDS011;2752;49.992;8.422;2024-01-06T12:07:07;3.40;;;2.43;;
5458;SDS011;2752;49.992;8.422;2024-01-06T12:09:34;4.73;;;2.83;;
5458;SDS011;2752;49.992;8.422;2024-01-06T12:12:02;3.70;;;2.67;;
5458;SDS011;2752;49.992;8.422;2024-01-06T12:14:29;6.20;;;3.03;;
5458;SDS011;2752;49.992;8.422;2024-01-06T12:16:57;8.67;;;2.77;;
5458;SDS011;2752;49.992;8.422;2024-01-06T12:19:27;15.13;;;3.30;;
5458;SDS011;2752;49.992;8.422;2024-01-06T12:21:55;4.30;;;2.70;;
5458;SDS011;2752;49.992;8.422;2024-01-06T12:24:23;5.37;;;3.13;;
5458;SDS011;2752;49.992;8.422;2024-01-06T12:26:50;4.47;;;2.60;;
5458;SDS011;2752;49.992;8.422;2024-01-06T12:29:18;9.60;;;3.40;;
5458;SDS011;2752;49.992;8.422;2024-01-06T12:31:45;5.53;;;3.10;;
5458;SDS011;2752;49.992;8.422;2024-01-06T12:34:13;4.70;;;2.70;;
5458;SDS011;2752;49.992;8.422;2024-01-06T12:36:40;17.70;;;3.60;;
5458;SDS011;2752;49.992;8.422;2024-01-06T12:39:10;3.97;;;2.73;;
5458;SDS011;2752;49.992;8.422;2024-01-06T12:41:39;9.47;;;3.03;;
5458;SDS011;2752;49.992;8.422;2024-01-06T12:44:07;4.33;;;2.80;;
5458;SDS011;2752;49.992;8.422;2024-01-06T12:46:34;4.33;;;2.83;;
5458;SDS011;2752;49.992;8.422;2024-01-06T12:49:01;5.30;;;3.10;;
5458;SDS011;2752;49.992;8.422;2024-01-06T12:51:28;4.77;;;2.50;;
5458;SDS011;2752;49.992;8.422;2024-01-06T12:53:55;4.10;;;2.80;;
5458;SDS011;2752;49.992;8.422;2024-01-06T12:56:22;4.00;;;2.63;;
5458;SDS011;2752;49.992;8.422;2024-01-06T12:58:51;7.50;;;2.80;;
5458;SDS011;2752;49.992;8.422;2024-01-06T13:01:18;5.40;;;3.43;;
5458;SDS011;2752;49.992;8.422;2024-01-06T13:03:45;6.10;;;3.37;;
5458;SDS011;2752;49.992;8.422;2024-01-06T13:06:12;7.43;;;3.50;;
5458;SDS011;2752;49.992;8.422;2024-01-06T13:08:41;8.07;;;3.90;;
5458;SDS011;2752;49.992;8.422;2024-01-06T13:11:08;5.47;;;3.37;;
5458;SDS011;2752;49.992;8.422;2024-01-06T13:13:35;4.90;;;2.93;;
5458;SDS011;2752;49.992;8.422;2024-01-06T13:16:03;12.10;;;2.90;;
5458;SDS011;2752;49.992;8.422;2024-01-06T13:18:31;8.87;;;3.93;;
5458;SDS011;2752;49.992;8.422;2024-01-06T13:20:58;5.83;;;3.13;;
5458;SDS011;2752;49.992;8.422;2024-01-06T13:23:25;5.73;;;3.53;;
5458;SDS011;2752;49.992;8.422;2024-01-06T13:25:52;8.73;;;4.03;;
5458;SDS011;2752;49.992;8.422;2024-01-06T13:28:19;6.47;;;2.60;;
5458;SDS011;2752;49.992;8.422;2024-01-06T13:30:49;8.40;;;2.97;;
5458;SDS011;2752;49.992;8.422;2024-01-06T13:33:18;5.13;;;3.17;;
5458;SDS011;2752;49.992;8.422;2024-01-06T13:35:46;3.90;;;2.50;;
5458;SDS011;2752;49.992;8.422;2024-01-06T13:38:13;7.23;;;3.50;;
5458;SDS011;2752;49.992;8.422;2024-01-06T13:40:41;2.70;;;1.80;;
5458;SDS011;2752;49.992;8.422;2024-01-06T13:43:08;4.90;;;2.80;;
5458;SDS011;2752;49.992;8.422;2024-01-06T13:45:40;6.80;;;3.20;;
5458;SDS011;2752;49.992;8.422;2024-01-06T13:48:08;12.80;;;2.97;;
5458;SDS011;2752;49.992;8.422;2024-01-06T13:50:36;4.90;;;2.87;;
5458;SDS011;2752;49.992;8.422;2024-01-06T13:53:03;10.63;;;3.00;;
5458;SDS011;2752;49.992;8.422;2024-01-06T13:55:31;3.93;;;3.07;;
5458;SDS011;2752;49.992;8.422;2024-01-06T13:57:58;5.23;;;3.00;;
5458;SDS011;2752;49.992;8.422;2024-01-06T14:00:25;7.83;;;3.73;;
5458;SDS011;2752;49.992;8.422;2024-01-06T14:02:53;5.37;;;3.23;;
5458;SDS011;2752;49.992;8.422;2024-01-06T14:05:20;5.93;;;3.77;;
5458;SDS011;2752;49.992;8.422;2024-01-06T14:07:48;11.43;;;3.63;;
5458;SDS011;2752;49.992;8.422;2024-01-06T14:10:15;5.23;;;3.97;;
5458;SDS011;2752;49.992;8.422;2024-01-06T14:12:42;5.37;;;3.07;;
5458;SDS011;2752;49.992;8.422;2024-01-06T14:15:09;6.07;;;3.97;;
5458;SDS011;2752;49.992;8.422;2024-01-06T14:17:38;9.97;;;3.63;;
5458;SDS011;2752;49.992;8.422;2024-01-06T14:20:06;11.90;;;4.53;;
5458;SDS011;2752;49.992;8.422;2024-01-06T14:22:34;7.20;;;3.83;;
5458;SDS011;2752;49.992;8.422;2024-01-06T14:25:03;8.73;;;3.80;;
5458;SDS011;2752;49.992;8.422;2024-01-06T14:27:31;10.90;;;4.87;;
5458;SDS011;2752;49.992;8.422;2024-01-06T14:29:58;10.73;;;4.70;;
5458;SDS011;2752;49.992;8.422;2024-01-06T14:32:26;14.20;;;4.57;;
5458;SDS011;2752;49.992;8.422;2024-01-06T14:34:54;12.37;;;4.37;;
5458;SDS011;2752;49.992;8.422;2024-01-06T14:37:21;10.17;;;4.07;;
5458;SDS011;2752;49.992;8.422;2024-01-06T14:39:48;8.50;;;3.80;;
5458;SDS011;2752;49.992;8.422;2024-01-06T14:42:16;7.43;;;3.63;;
5458;SDS011;2752;49.992;8.422;2024-01-06T14:44:44;11.00;;;4.47;;
5458;SDS011;2752;49.992;8.422;2024-01-06T14:47:11;10.93;;;4.00;;
5458;SDS011;2752;49.992;8.422;2024-01-06T14:49:38;6.27;;;3.00;;
5458;SDS011;2752;49.992;8.422;2024-01-06T14:52:05;8.70;;;3.90;;
5458;SDS011;2752;49.992;8.422;2024-01-06T14:54:34;11.43;;;4.60;;
5458;SDS011;2752;49.992;8.422;2024-01-06T14:57:01;12.30;;;5.50;;
5458;SDS011;2752;49.992;8.422;2024-01-06T14:59:30;7.03;;;3.57;;
5458;SDS011;2752;49.992;8.422;2024-01-06T15:01:57;7.80;;;3.97;;
5458;SDS011;2752;49.992;8.422;2024-01-06T15:04:24;7.03;;;2.50;;
5458;SDS011;2752;49.992;8.422;2024-01-06T15:06:51;5.53;;;3.07;;
5458;SDS011;2752;49.992;8.422;2024-01-06T15:09:18;10.10;;;4.97;;
5458;SDS011;2752;49.992;8.422;2024-01-06T15:11:45;8.00;;;3.93;;
5458;SDS011;2752;49.992;8.422;2024-01-06T15:14:12;5.73;;;2.90;;
5458;SDS011;2752;49.992;8.422;2024-01-06T15:16:41;7.73;;;3.77;;
5458;SDS011;2752;49.992;8.422;2024-01-06T15:19:08;8.90;;;4.40;;
5458;SDS011;2752;49.992;8.422;2024-01-06T15:21:37;8.47;;;4.70;;